Terminal Aerodrome Forecast
Issued by NWS

Home | Current Version | Previous Version | Text Only | Print | Product List | Glossary On
Versions: 1 2 3 4 5 6 7 8 9 10 11 12 13 14 15 16
997
FTUS46 KMTR 302338
TAFMRY
TAF
KMRY 302338Z 3100/3124 29012KT P6SM SKC
     FM310300 29008KT P6SM SCT150 BKN250
     FM310500 29006KT P6SM VCSH BKN150 OVC200
     FM311400 25004KT P6SM SCT200
     FM311800 28012KT P6SM FEW250=

USA.gov is the U.S. government's official web portal to all federal, state and local government web resources and services.